Isola Bianca — ICLD — position and weather

sailwx.info

Track history (hours):
 
Tides and Currents Weather Stations Pressure Air Temp Water Temp Dewpoint Dewpoint Depression Visibility Wind Speed Wind Dir Waves Ship Positions

Isola Bianca

Last reported at 2015-Oct-16 15:32 UTC. Time now 2016-Feb-14 12:43 UTC.
Position S 35°04' W 055°35'.
Warning: this ship's position is months out of date.

Length 183 m; draft 10.5 m.

Type: Ship (hazmat cat A). MMSI: 247245200.

Date/timePositionNaut miles runAvg speedWind from/ knotsBaromVisibWave heightAir tempDewpointWater temp
2015-Oct-16 15:32S 35°04' W 055°35'2811.5
2015-Oct-16 13:07S 35°08' W 056°09'912.6
2015-Oct-16 12:25S 35°10' W 056°19'1012.2
2015-Oct-16 11:33S 35°10' W 056°32'1211.9
2015-Oct-16 10:32S 35°10' W 056°47'5310.7
2015-Oct-16 05:33S 34°44' W 057°44'8 7.9
2015-Oct-16 04:33S 34°42' W 057°53'1110.5
2015-Oct-16 03:33S 34°39' W 058°06'9 8.9
2015-Oct-16 02:30S 34°35' W 058°16'  
Track history (hours):
 
Tides and Currents Weather Stations Pressure Air Temp Water Temp Dewpoint Dewpoint Depression Visibility Wind Speed Wind Dir Waves Ship Positions

Isola Bianca

Last reported at 2015-Oct-16 15:32 UTC. Time now 2016-Feb-14 12:43 UTC.
Position S 35°04' W 055°35'.
Warning: this ship's position is months out of date.

Length 183 m; draft 10.5 m.

Type: Ship (hazmat cat A). MMSI: 247245200.

Date/timePositionNaut miles runAvg speedWind from/ knotsBaromVisibWave heightAir tempDewpointWater temp
2015-Oct-16 15:32S 35°04' W 055°35'2811.5
2015-Oct-16 13:07S 35°08' W 056°09'912.6
2015-Oct-16 12:25S 35°10' W 056°19'1012.2
2015-Oct-16 11:33S 35°10' W 056°32'1211.9
2015-Oct-16 10:32S 35°10' W 056°47'5310.7
2015-Oct-16 05:33S 34°44' W 057°44'8 7.9
2015-Oct-16 04:33S 34°42' W 057°53'1110.5
2015-Oct-16 03:33S 34°39' W 058°06'9 8.9
2015-Oct-16 02:30S 34°35' W 058°16'  

Dump ship's entire track history